Terminal Aerodrome Forecast
Issued by NWS

Home | Current Version | Previous Version | Text Only | Print | Product List | Glossary On
Versions: 1 2 3 4 5 6 7 8 9 10 11 12 13 14 15
000
FTUS41 KBGM 281830 AAA
TAFRME
TAF AMD
KRME 281830Z 2819/2918 26007KT P6SM SCT050 BKN250
     FM282300 00000KT P6SM SCT250
     FM291500 21006KT P6SM BKN050
      TEMPO 2915/2918 TSRA BKN050CB=

USA.gov is the U.S. government's official web portal to all federal, state and local government web resources and services.